createdAt,value
2022-10-15T00:02:08.788Z,8.90
2022-10-15T00:05:12.337Z,9.10
2022-10-15T00:08:15.710Z,9.10
2022-10-15T00:11:23.210Z,9.20
2022-10-15T00:14:26.574Z,9.30
2022-10-15T00:17:29.983Z,9.30
2022-10-15T00:20:34.485Z,9.30
2022-10-15T00:23:38.325Z,9.30
2022-10-15T00:26:43.340Z,9.40
2022-10-15T00:29:46.646Z,9.30
2022-10-15T00:32:50.127Z,9.30
2022-10-15T00:36:00.187Z,9.40
2022-10-15T00:39:06.608Z,9.40
2022-10-15T00:42:12.892Z,9.40
2022-10-15T00:45:17.781Z,9.40
2022-10-15T00:48:21.298Z,9.40
2022-10-15T00:51:27.940Z,9.40
2022-10-15T00:54:36.214Z,9.40
2022-10-15T00:57:41.670Z,9.30
2022-10-15T01:00:46.139Z,9.30
2022-10-15T01:03:49.814Z,9.30
2022-10-15T01:06:54.433Z,9.20
2022-10-15T01:09:58.918Z,9.20
2022-10-15T01:13:11.799Z,9.10
2022-10-15T01:16:23.167Z,9.10
2022-10-15T01:19:57.808Z,9.00
2022-10-15T01:23:32.581Z,9.00
2022-10-15T01:27:10.614Z,9.00
2022-10-15T01:30:38.502Z,9.10
2022-10-15T01:33:46.760Z,9.00
2022-10-15T01:36:57.226Z,9.00
2022-10-15T01:40:08.013Z,9.00
2022-10-15T01:43:19.093Z,9.10
2022-10-15T01:46:48.528Z,9.20
2022-10-15T01:49:57.756Z,9.20
2022-10-15T01:53:03.528Z,9.20
2022-10-15T01:56:11.104Z,9.30
2022-10-15T01:59:15.098Z,9.30
2022-10-15T02:02:20.272Z,9.30
2022-10-15T02:05:28.608Z,9.20
2022-10-15T02:08:41.515Z,9.30
2022-10-15T02:11:55.025Z,9.30
2022-10-15T02:15:04.648Z,9.30
2022-10-15T02:18:17.515Z,9.30
2022-10-15T02:21:25.669Z,9.00
2022-10-15T02:24:34.550Z,9.40
2022-10-15T02:27:43.145Z,9.30
2022-10-15T02:30:52.876Z,9.30
2022-10-15T02:34:02.464Z,9.30
2022-10-15T02:37:08.092Z,9.30
2022-10-15T02:40:12.576Z,9.20
2022-10-15T02:43:20.822Z,9.10
2022-10-15T02:46:24.362Z,9.20
2022-10-15T02:49:29.917Z,9.20
2022-10-15T02:52:33.393Z,9.10
2022-10-15T02:55:37.082Z,9.10
2022-10-15T02:58:41.330Z,9.10
2022-10-15T03:01:44.803Z,9.10
2022-10-15T03:04:51.508Z,9.20
2022-10-15T03:07:55.027Z,9.20
2022-10-15T03:11:01.381Z,9.30
2022-10-15T03:14:06.125Z,9.30
2022-10-15T03:17:10.679Z,9.40
2022-10-15T03:20:16.691Z,9.40
2022-10-15T03:23:20.198Z,9.40
2022-10-15T03:26:23.610Z,9.40
2022-10-15T03:29:26.903Z,9.40
2022-10-15T03:32:36.575Z,9.40
2022-10-15T03:35:43.323Z,9.50
2022-10-15T03:38:47.461Z,9.50
2022-10-15T03:41:53.478Z,9.40
2022-10-15T03:45:02.054Z,9.40
2022-10-15T03:48:06.449Z,9.40
2022-10-15T03:51:18.167Z,9.40
2022-10-15T03:54:28.209Z,9.40
2022-10-15T03:57:31.549Z,9.40
2022-10-15T04:00:43.229Z,9.40
2022-10-15T04:03:47.580Z,9.40
2022-10-15T04:06:54.776Z,9.40
2022-10-15T04:09:58.261Z,9.50
2022-10-15T04:13:12.226Z,9.50
2022-10-15T04:16:17.890Z,9.50
2022-10-15T04:19:21.230Z,9.50
2022-10-15T04:22:38.021Z,9.60
2022-10-15T04:25:42.736Z,9.50
2022-10-15T04:28:48.497Z,9.60
2022-10-15T04:31:52.229Z,9.50
2022-10-15T04:34:59.245Z,9.60
2022-10-15T04:38:22.963Z,9.60
2022-10-15T04:41:37.875Z,9.60
2022-10-15T04:44:44.862Z,9.60
2022-10-15T04:47:48.994Z,9.60
2022-10-15T04:50:54.265Z,9.60
2022-10-15T04:54:01.802Z,9.60
2022-10-15T04:57:06.803Z,9.60
2022-10-15T05:00:13.314Z,9.50
2022-10-15T05:03:19.265Z,9.60
2022-10-15T05:06:31.084Z,9.60
2022-10-15T05:09:46.138Z,9.60
2022-10-15T05:12:51.571Z,9.60
2022-10-15T05:16:11.503Z,9.60
2022-10-15T05:19:16.913Z,9.60
2022-10-15T05:22:21.287Z,9.60
2022-10-15T05:25:31.096Z,9.60
2022-10-15T05:28:34.989Z,9.60
2022-10-15T05:31:38.239Z,9.50
2022-10-15T05:34:49.476Z,9.50
2022-10-15T05:37:53.126Z,9.50
2022-10-15T05:40:57.962Z,9.50
2022-10-15T05:44:01.310Z,9.50
2022-10-15T05:47:06.841Z,9.50
2022-10-15T05:50:11.964Z,9.60
2022-10-15T05:53:20.341Z,9.60
2022-10-15T05:56:28.153Z,9.70
2022-10-15T05:59:31.403Z,9.70
2022-10-15T06:02:34.872Z,9.70
2022-10-15T06:05:38.430Z,9.80
2022-10-15T06:08:42.824Z,9.80
2022-10-15T06:11:47.462Z,9.90
2022-10-15T06:14:54.806Z,9.90
2022-10-15T06:17:58.197Z,10.00
2022-10-15T06:21:01.837Z,10.10
2022-10-15T06:24:09.205Z,10.30
2022-10-15T06:27:14.999Z,10.50
2022-10-15T06:30:20.079Z,10.70
2022-10-15T06:33:23.718Z,10.80
2022-10-15T06:36:26.990Z,10.80
2022-10-15T06:39:34.902Z,10.90
2022-10-15T06:42:39.603Z,10.90
2022-10-15T06:45:44.897Z,10.90
2022-10-15T06:48:55.886Z,11.00
2022-10-15T06:52:03.436Z,11.10
2022-10-15T06:55:08.397Z,11.00
2022-10-15T06:58:12.940Z,11.00
2022-10-15T07:01:17.072Z,11.00
2022-10-15T07:04:20.368Z,10.80
2022-10-15T07:07:23.539Z,10.80
2022-10-15T07:10:28.471Z,11.00
2022-10-15T07:13:33.770Z,11.20
2022-10-15T07:16:39.374Z,11.40
2022-10-15T07:19:42.768Z,11.60
2022-10-15T07:22:46.832Z,11.60
2022-10-15T07:25:50.084Z,11.70
2022-10-15T07:28:54.754Z,11.80
2022-10-15T07:31:58.105Z,12.10
2022-10-15T07:35:01.395Z,12.20
2022-10-15T07:38:05.991Z,12.20
2022-10-15T07:41:10.967Z,12.30
2022-10-15T07:44:20.072Z,12.40
2022-10-15T07:47:23.599Z,12.50
2022-10-15T07:50:29.309Z,12.50
2022-10-15T07:53:37.141Z,12.60
2022-10-15T07:56:40.402Z,12.60
2022-10-15T07:59:45.176Z,12.70
2022-10-15T08:02:48.762Z,12.70
2022-10-15T08:05:56.350Z,12.80
2022-10-15T08:09:00.575Z,13.00
2022-10-15T08:12:07.159Z,13.10
2022-10-15T08:15:12.802Z,13.30
2022-10-15T08:18:16.313Z,13.50
2022-10-15T08:21:19.734Z,13.60
2022-10-15T08:24:22.982Z,13.90
2022-10-15T08:27:26.364Z,14.10
2022-10-15T08:30:35.064Z,14.30
2022-10-15T08:33:46.482Z,14.40
2022-10-15T08:36:49.826Z,14.50
2022-10-15T08:39:53.332Z,14.70
2022-10-15T08:42:58.334Z,15.10
2022-10-15T08:46:07.857Z,15.20
2022-10-15T08:49:22.654Z,15.30
2022-10-15T08:52:31.279Z,15.30
2022-10-15T08:55:40.304Z,15.30
2022-10-15T08:58:50.210Z,15.20
2022-10-15T09:02:00.347Z,15.30
2022-10-15T09:05:16.244Z,15.40
2022-10-15T09:08:27.086Z,15.40
2022-10-15T09:11:38.627Z,15.50
2022-10-15T09:14:44.479Z,15.40
2022-10-15T09:17:52.523Z,15.60
2022-10-15T09:20:58.017Z,15.80
2022-10-15T09:24:03.890Z,16.00
2022-10-15T09:27:11.123Z,16.10
2022-10-15T09:30:29.669Z,16.10
2022-10-15T09:33:42.524Z,16.00
2022-10-15T09:36:51.773Z,16.30
2022-10-15T09:40:04.237Z,16.30
2022-10-15T09:43:11.499Z,16.30
2022-10-15T09:46:15.031Z,16.70
2022-10-15T09:49:24.630Z,17.00
2022-10-15T09:52:57.955Z,16.50
2022-10-15T09:56:10.272Z,16.30
2022-10-15T09:59:17.825Z,16.40
2022-10-15T10:02:24.830Z,16.40
2022-10-15T10:05:32.016Z,16.30
2022-10-15T10:08:39.724Z,16.40
2022-10-15T10:11:50.547Z,16.40
2022-10-15T10:14:57.095Z,16.30
2022-10-15T10:18:00.561Z,16.60
2022-10-15T10:21:07.984Z,16.90
2022-10-15T10:24:23.670Z,17.40
2022-10-15T10:27:30.980Z,17.40
2022-10-15T10:30:36.923Z,17.50
2022-10-15T10:33:47.766Z,17.60
2022-10-15T10:36:53.598Z,17.80
2022-10-15T10:39:59.837Z,18.10
2022-10-15T10:43:13.681Z,18.20
2022-10-15T10:46:21.925Z,18.40
2022-10-15T10:49:33.618Z,18.60
2022-10-15T10:52:41.060Z,18.90
2022-10-15T10:55:46.649Z,18.60
2022-10-15T10:58:56.723Z,18.80
2022-10-15T11:02:00.222Z,18.80
2022-10-15T11:05:04.246Z,19.30
2022-10-15T11:08:19.552Z,19.40
2022-10-15T11:11:28.495Z,19.70
2022-10-15T11:14:46.567Z,20.00
2022-10-15T11:18:02.719Z,19.90
2022-10-15T11:21:19.525Z,20.00
2022-10-15T11:24:42.889Z,19.80
2022-10-15T11:28:05.195Z,20.30
2022-10-15T11:31:17.156Z,20.60
2022-10-15T11:34:33.342Z,20.30
2022-10-15T11:37:46.637Z,19.70
2022-10-15T11:41:08.843Z,19.70
2022-10-15T11:44:33.816Z,19.80
2022-10-15T11:47:49.921Z,19.90
2022-10-15T11:50:59.762Z,19.70
2022-10-15T11:54:32.788Z,19.30
2022-10-15T11:57:40.752Z,19.00
2022-10-15T12:00:48.349Z,18.70
2022-10-15T12:03:55.732Z,18.50
2022-10-15T12:07:02.315Z,18.30
2022-10-15T12:10:15.162Z,18.30
2022-10-15T12:13:28.466Z,18.40
2022-10-15T12:16:37.584Z,18.60
2022-10-15T12:19:47.025Z,19.00
2022-10-15T12:22:59.049Z,18.70
2022-10-15T12:26:02.407Z,18.70
2022-10-15T12:29:19.150Z,18.50
2022-10-15T12:32:26.984Z,18.50
2022-10-15T12:35:37.897Z,18.30
2022-10-15T12:38:42.982Z,18.30
2022-10-15T12:41:49.078Z,18.50
2022-10-15T12:44:54.301Z,18.40
2022-10-15T12:48:19.542Z,18.50
2022-10-15T12:51:41.530Z,18.60
2022-10-15T12:54:46.294Z,18.80
2022-10-15T12:58:04.258Z,18.90
2022-10-15T13:01:51.232Z,18.70
2022-10-15T13:04:54.717Z,18.90
2022-10-15T13:08:00.740Z,19.00
2022-10-15T13:11:04.092Z,18.80
2022-10-15T13:14:26.557Z,18.60
2022-10-15T13:17:33.078Z,18.50
2022-10-15T13:20:39.607Z,18.50
2022-10-15T13:23:47.827Z,18.60
2022-10-15T13:26:51.603Z,18.50
2022-10-15T13:29:56.846Z,18.50
2022-10-15T13:33:01.595Z,18.60
2022-10-15T13:36:08.876Z,18.50
2022-10-15T13:39:31.332Z,18.30
2022-10-15T13:42:35.263Z,18.10
2022-10-15T13:45:38.610Z,18.00
2022-10-15T13:48:45.257Z,17.80
2022-10-15T13:51:51.378Z,17.60
2022-10-15T13:54:54.773Z,17.60
2022-10-15T13:58:02.601Z,17.50
2022-10-15T14:01:15.686Z,17.50
2022-10-15T14:04:23.182Z,17.40
2022-10-15T14:07:27.693Z,17.30
2022-10-15T14:10:31.567Z,17.30
2022-10-15T14:13:35.448Z,17.20
2022-10-15T14:16:42.874Z,17.20
2022-10-15T14:20:02.198Z,17.10
2022-10-15T14:23:17.750Z,17.00
2022-10-15T14:26:26.002Z,16.90
2022-10-15T14:29:36.175Z,16.80
2022-10-15T14:32:47.687Z,16.70
2022-10-15T14:36:05.398Z,16.60
2022-10-15T14:39:30.476Z,16.50
2022-10-15T14:42:34.554Z,16.40
2022-10-15T14:45:43.498Z,16.30
2022-10-15T14:48:47.076Z,16.20
2022-10-15T14:52:02.301Z,16.20
2022-10-15T14:55:11.767Z,16.10
2022-10-15T14:58:20.341Z,16.00
2022-10-15T15:01:24.825Z,16.00
2022-10-15T15:04:36.590Z,15.90
2022-10-15T15:07:42.096Z,15.80
2022-10-15T15:13:55.721Z,15.60
2022-10-15T15:16:58.993Z,15.50
2022-10-15T15:23:07.728Z,15.30
2022-10-15T15:26:12.110Z,15.20
2022-10-15T15:29:15.683Z,15.00
2022-10-15T15:32:19.261Z,14.80
2022-10-15T15:35:26.201Z,14.60
2022-10-15T15:38:31.862Z,14.40
2022-10-15T15:41:35.243Z,14.30
2022-10-15T15:44:38.728Z,14.30
2022-10-15T15:47:42.444Z,14.10
2022-10-15T15:50:45.946Z,14.10
2022-10-15T15:53:50.950Z,14.00
2022-10-15T15:56:54.333Z,13.90
2022-10-15T15:59:57.676Z,13.90
2022-10-15T16:03:00.933Z,13.80
2022-10-15T16:06:07.309Z,13.80
2022-10-15T16:09:12.105Z,13.80
2022-10-15T16:12:15.447Z,13.70
2022-10-15T16:15:19.021Z,13.70
2022-10-15T16:18:22.445Z,13.60
2022-10-15T16:21:26.658Z,13.60
2022-10-15T16:24:31.561Z,13.60
2022-10-15T16:27:35.412Z,13.60
2022-10-15T16:30:38.938Z,13.60
2022-10-15T16:33:42.455Z,13.60
2022-10-15T16:36:45.872Z,13.60
2022-10-15T16:39:51.241Z,13.60
2022-10-15T16:42:56.289Z,13.50
2022-10-15T16:46:02.114Z,13.60
2022-10-15T16:49:06.052Z,13.60
2022-10-15T16:52:12.214Z,13.60
2022-10-15T16:55:18.018Z,13.70
2022-10-15T16:58:21.657Z,13.60
2022-10-15T17:01:28.143Z,13.60
2022-10-15T17:04:32.075Z,13.60
2022-10-15T17:07:36.200Z,13.80
2022-10-15T17:10:46.134Z,13.70
2022-10-15T17:13:51.042Z,13.70
2022-10-15T17:16:54.368Z,13.70
2022-10-15T17:19:57.895Z,13.70
2022-10-15T17:23:01.331Z,13.70
2022-10-15T17:26:08.523Z,13.90
2022-10-15T17:29:13.530Z,14.00
2022-10-15T17:32:16.855Z,14.00
2022-10-15T17:35:20.836Z,14.00
2022-10-15T17:38:24.647Z,14.00
2022-10-15T17:41:31.115Z,13.90
2022-10-15T17:44:34.453Z,13.90
2022-10-15T17:47:38.775Z,13.90
2022-10-15T17:50:45.268Z,14.00
2022-10-15T17:53:50.993Z,14.10
2022-10-15T17:56:55.920Z,14.10
2022-10-15T17:59:59.809Z,14.00
2022-10-15T18:03:03.354Z,14.00
2022-10-15T18:06:10.969Z,14.00
2022-10-15T18:09:14.341Z,14.00
2022-10-15T18:12:19.008Z,13.90
2022-10-15T18:15:22.637Z,13.90
2022-10-15T18:18:26.818Z,13.80
2022-10-15T18:21:30.390Z,13.80
2022-10-15T18:24:33.743Z,13.80
2022-10-15T18:27:42.635Z,13.80
2022-10-15T18:30:46.309Z,13.80
2022-10-15T18:33:52.361Z,13.80
2022-10-15T18:36:55.852Z,13.80
2022-10-15T18:39:59.845Z,13.80
2022-10-15T18:43:05.490Z,13.80
2022-10-15T18:46:08.817Z,13.70
2022-10-15T18:49:13.164Z,13.70
2022-10-15T18:52:22.032Z,13.70
2022-10-15T18:55:38.781Z,13.60
2022-10-15T18:58:43.848Z,13.60
2022-10-15T19:01:49.280Z,13.60
2022-10-15T19:04:52.719Z,13.60
2022-10-15T19:07:56.034Z,13.60
2022-10-15T19:11:04.907Z,13.60
2022-10-15T19:14:10.025Z,13.60
2022-10-15T19:17:14.016Z,13.50
2022-10-15T19:20:17.567Z,13.60
2022-10-15T19:23:21.055Z,13.60
2022-10-15T19:26:24.596Z,13.50
2022-10-15T19:29:32.995Z,13.50
2022-10-15T19:32:38.684Z,13.50
2022-10-15T19:35:43.494Z,13.50
2022-10-15T19:38:47.201Z,13.40
2022-10-15T19:41:53.495Z,13.40
2022-10-15T19:44:58.453Z,13.50
2022-10-15T19:48:02.577Z,13.50
2022-10-15T19:51:07.172Z,13.40
2022-10-15T19:54:11.387Z,13.50
2022-10-15T19:57:16.566Z,13.40
2022-10-15T20:00:22.743Z,13.40
2022-10-15T20:03:28.746Z,13.40
2022-10-15T20:06:33.568Z,13.50
2022-10-15T20:09:37.112Z,13.40
2022-10-15T20:12:42.139Z,13.40
2022-10-15T20:15:49.003Z,13.40
2022-10-15T20:18:52.450Z,13.30
2022-10-15T20:21:59.202Z,13.30
2022-10-15T20:25:04.549Z,13.20
2022-10-15T20:28:07.981Z,13.20
2022-10-15T20:31:16.324Z,13.10
2022-10-15T20:34:19.992Z,13.10
2022-10-15T20:37:23.513Z,13.20
2022-10-15T20:40:27.444Z,13.20
2022-10-15T20:43:30.973Z,13.20
2022-10-15T20:46:42.231Z,13.20
2022-10-15T20:49:49.670Z,13.20
2022-10-15T20:52:55.030Z,13.30
2022-10-15T20:55:58.521Z,13.20
2022-10-15T20:59:02.193Z,13.20
2022-10-15T21:02:07.497Z,13.20
2022-10-15T21:05:11.239Z,13.20
2022-10-15T21:08:15.333Z,13.10
2022-10-15T21:11:18.959Z,13.10
2022-10-15T21:14:22.707Z,13.10
2022-10-15T21:17:28.397Z,13.10
2022-10-15T21:20:31.940Z,13.10
2022-10-15T21:23:37.307Z,13.20
2022-10-15T21:26:40.511Z,13.10
2022-10-15T21:29:45.522Z,13.10
2022-10-15T21:32:50.248Z,13.10
2022-10-15T21:35:53.789Z,13.10
2022-10-15T21:38:59.293Z,13.00
2022-10-15T21:42:03.075Z,13.00
2022-10-15T21:45:07.518Z,12.90
2022-10-15T21:48:12.487Z,12.90
2022-10-15T21:51:17.413Z,12.80
2022-10-15T21:54:20.835Z,12.80
2022-10-15T21:57:24.737Z,12.70
2022-10-15T22:00:28.454Z,12.50
2022-10-15T22:03:33.620Z,12.50
2022-10-15T22:06:39.995Z,12.40
2022-10-15T22:09:43.646Z,12.30
2022-10-15T22:12:52.446Z,12.20
2022-10-15T22:16:01.395Z,12.10
2022-10-15T22:19:08.644Z,12.00
2022-10-15T22:22:11.957Z,11.90
2022-10-15T22:25:15.859Z,11.80
2022-10-15T22:28:19.227Z,11.80
2022-10-15T22:31:23.308Z,11.70
2022-10-15T22:34:28.154Z,11.70
2022-10-15T22:37:31.467Z,11.60
2022-10-15T22:40:34.988Z,11.50
2022-10-15T22:43:38.907Z,11.40
2022-10-15T22:46:46.241Z,11.40
2022-10-15T22:49:51.159Z,11.40
2022-10-15T22:52:54.696Z,11.40
2022-10-15T22:55:58.228Z,11.40
2022-10-15T22:59:01.636Z,11.40
2022-10-15T23:02:05.262Z,11.30
2022-10-15T23:05:10.637Z,11.20
2022-10-15T23:08:14.173Z,11.20
2022-10-15T23:11:19.771Z,11.10
2022-10-15T23:14:23.090Z,11.00
2022-10-15T23:17:26.363Z,10.90
2022-10-15T23:20:33.710Z,10.90
2022-10-15T23:23:39.823Z,10.80
2022-10-15T23:26:43.775Z,10.80
2022-10-15T23:29:53.462Z,10.80
2022-10-15T23:33:05.327Z,10.70
2022-10-15T23:36:10.791Z,10.60
2022-10-15T23:39:15.892Z,10.50
2022-10-15T23:42:19.283Z,10.50
2022-10-15T23:45:22.553Z,10.40
2022-10-15T23:48:26.191Z,10.30
2022-10-15T23:51:35.767Z,10.20
2022-10-15T23:54:39.124Z,10.00
2022-10-15T23:57:42.430Z,9.90
